sensor_id;sensor_type;location;lat;lon;timestamp;pressure;altitude;pressure_sealevel;temperature;humidity
7918;BME280;4004;42.624;23.386;2024-03-23T00:53:46;94170.38;;;3.13;85.12
7918;BME280;4004;42.624;23.386;2024-03-23T00:56:13;94172.84;;;3.01;85.76
7918;BME280;4004;42.624;23.386;2024-03-23T00:58:39;94167.88;;;3.08;86.07
7918;BME280;4004;42.624;23.386;2024-03-23T01:01:06;94168.84;;;3.12;85.92
7918;BME280;4004;42.624;23.386;2024-03-23T01:03:32;94166.78;;;3.09;86.22
7918;BME280;4004;42.624;23.386;2024-03-23T01:05:59;94167.09;;;3.07;85.00
7918;BME280;4004;42.624;23.386;2024-03-23T01:08:25;94162.81;;;2.98;85.18
7918;BME280;4004;42.624;23.386;2024-03-23T01:10:57;94156.91;;;3.01;84.69
7918;BME280;4004;42.624;23.386;2024-03-23T01:13:23;94158.59;;;2.97;84.42
7918;BME280;4004;42.624;23.386;2024-03-23T01:15:50;94150.69;;;3.05;83.95
7918;BME280;4004;42.624;23.386;2024-03-23T01:18:17;94162.03;;;2.97;84.11
7918;BME280;4004;42.624;23.386;2024-03-23T01:20:44;94157.50;;;2.98;84.51
7918;BME280;4004;42.624;23.386;2024-03-23T01:23:10;94153.63;;;3.04;84.51
7918;BME280;4004;42.624;23.386;2024-03-23T01:25:37;94158.47;;;3.02;84.12
7918;BME280;4004;42.624;23.386;2024-03-23T01:28:05;94159.09;;;2.99;83.83
7918;BME280;4004;42.624;23.386;2024-03-23T01:30:32;94151.72;;;2.96;83.98
7918;BME280;4004;42.624;23.386;2024-03-23T01:32:58;94147.16;;;2.87;84.75
7918;BME280;4004;42.624;23.386;2024-03-23T01:35:25;94149.94;;;2.82;85.99
7918;BME280;4004;42.624;23.386;2024-03-23T01:37:51;94156.97;;;2.78;86.86
7918;BME280;4004;42.624;23.386;2024-03-23T01:40:18;94154.34;;;2.87;86.84
7918;BME280;4004;42.624;23.386;2024-03-23T01:42:55;94158.66;;;2.74;87.07
7918;BME280;4004;42.624;23.386;2024-03-23T01:45:23;94157.88;;;2.74;87.36
7918;BME280;4004;42.624;23.386;2024-03-23T01:47:49;94147.06;;;2.70;88.22
7918;BME280;4004;42.624;23.386;2024-03-23T01:50:16;94144.84;;;2.63;89.29
7918;BME280;4004;42.624;23.386;2024-03-23T01:52:42;94154.56;;;2.68;89.25
7918;BME280;4004;42.624;23.386;2024-03-23T01:55:09;94150.22;;;2.72;89.63
7918;BME280;4004;42.624;23.386;2024-03-23T01:57:35;94153.22;;;2.79;89.00
7918;BME280;4004;42.624;23.386;2024-03-23T02:00:03;94157.31;;;2.85;88.20
7918;BME280;4004;42.624;23.386;2024-03-23T02:02:30;94163.09;;;2.87;88.13
7918;BME280;4004;42.624;23.386;2024-03-23T02:04:57;94159.97;;;2.85;89.67
7918;BME280;4004;42.624;23.386;2024-03-23T02:07:23;94151.66;;;2.78;90.71
7918;BME280;4004;42.624;23.386;2024-03-23T02:09:50;94163.97;;;2.74;91.10
7918;BME280;4004;42.624;23.386;2024-03-23T02:12:17;94156.59;;;2.71;91.83
7918;BME280;4004;42.624;23.386;2024-03-23T02:14:44;94163.91;;;2.65;90.71
7918;BME280;4004;42.624;23.386;2024-03-23T02:17:10;94161.50;;;2.55;89.87
7918;BME280;4004;42.624;23.386;2024-03-23T02:19:38;94165.75;;;2.56;90.10
7918;BME280;4004;42.624;23.386;2024-03-23T02:22:04;94164.91;;;2.47;90.97
7918;BME280;4004;42.624;23.386;2024-03-23T02:24:33;94166.25;;;2.36;93.33
7918;BME280;4004;42.624;23.386;2024-03-23T02:26:59;94171.34;;;2.32;94.12
7918;BME280;4004;42.624;23.386;2024-03-23T02:29:26;94170.78;;;2.21;95.81
7918;BME280;4004;42.624;23.386;2024-03-23T02:31:52;94164.72;;;2.21;96.13
7918;BME280;4004;42.624;23.386;2024-03-23T02:34:19;94172.06;;;2.24;94.74
7918;BME280;4004;42.624;23.386;2024-03-23T02:36:45;94155.56;;;2.27;94.06
7918;BME280;4004;42.624;23.386;2024-03-23T02:39:11;94156.34;;;2.27;92.43
7918;BME280;4004;42.624;23.386;2024-03-23T02:41:39;94163.81;;;2.25;91.00
7918;BME280;4004;42.624;23.386;2024-03-23T02:44:06;94164.66;;;2.35;89.77
7918;BME280;4004;42.624;23.386;2024-03-23T02:46:32;94164.16;;;2.33;88.39
7918;BME280;4004;42.624;23.386;2024-03-23T02:48:59;94164.94;;;2.33;87.00
7918;BME280;4004;42.624;23.386;2024-03-23T02:51:24;94161.28;;;2.43;85.99
7918;BME280;4004;42.624;23.386;2024-03-23T02:53:51;94154.09;;;2.43;84.93
7918;BME280;4004;42.624;23.386;2024-03-23T02:56:17;94161.56;;;2.41;84.09
7918;BME280;4004;42.624;23.386;2024-03-23T02:58:46;94153.38;;;2.29;84.51
7918;BME280;4004;42.624;23.386;2024-03-23T03:01:11;94149.88;;;2.20;84.63
7918;BME280;4004;42.624;23.386;2024-03-23T03:03:38;94154.53;;;2.14;85.55
7918;BME280;4004;42.624;23.386;2024-03-23T03:06:04;94151.63;;;2.24;84.97
7918;BME280;4004;42.624;23.386;2024-03-23T03:08:31;94148.81;;;2.21;84.98
7918;BME280;4004;42.624;23.386;2024-03-23T03:10:57;94154.69;;;2.18;85.58
7918;BME280;4004;42.624;23.386;2024-03-23T03:13:24;94156.75;;;2.21;85.00
7918;BME280;4004;42.624;23.386;2024-03-23T03:15:52;94166.88;;;2.19;84.42
7918;BME280;4004;42.624;23.386;2024-03-23T03:18:19;94154.94;;;2.30;83.74
7918;BME280;4004;42.624;23.386;2024-03-23T03:20:45;94155.25;;;2.28;83.23
7918;BME280;4004;42.624;23.386;2024-03-23T03:23:12;94144.28;;;2.21;84.13
7918;BME280;4004;42.624;23.386;2024-03-23T03:25:37;94150.25;;;2.27;83.39
7918;BME280;4004;42.624;23.386;2024-03-23T03:28:05;94150.91;;;2.33;82.13
7918;BME280;4004;42.624;23.386;2024-03-23T03:30:31;94155.50;;;2.41;80.40
7918;BME280;4004;42.624;23.386;2024-03-23T03:32:59;94156.28;;;2.41;80.32
7918;BME280;4004;42.624;23.386;2024-03-23T03:35:25;94153.41;;;2.38;79.83
7918;BME280;4004;42.624;23.386;2024-03-23T03:37:53;94158.56;;;2.34;79.74
7918;BME280;4004;42.624;23.386;2024-03-23T03:40:18;94160.31;;;2.39;80.02
7918;BME280;4004;42.624;23.386;2024-03-23T03:42:45;94155.28;;;2.37;80.37
7918;BME280;4004;42.624;23.386;2024-03-23T03:45:11;94156.50;;;2.31;82.11
7918;BME280;4004;42.624;23.386;2024-03-23T03:47:38;94154.25;;;2.24;82.71
7918;BME280;4004;42.624;23.386;2024-03-23T03:50:06;94156.34;;;2.27;84.79
7918;BME280;4004;42.624;23.386;2024-03-23T03:52:33;94154.22;;;2.16;86.35
7918;BME280;4004;42.624;23.386;2024-03-23T03:55:01;94161.22;;;2.12;87.85
7918;BME280;4004;42.624;23.386;2024-03-23T03:57:29;94159.56;;;2.02;88.92
7918;BME280;4004;42.624;23.386;2024-03-23T03:59:55;94160.78;;;1.96;89.26
7918;BME280;4004;42.624;23.386;2024-03-23T04:02:21;94159.97;;;1.95;88.92
7918;BME280;4004;42.624;23.386;2024-03-23T04:04:47;94164.22;;;1.96;88.77
7918;BME280;4004;42.624;23.386;2024-03-23T04:07:16;94163.13;;;1.97;87.28
7918;BME280;4004;42.624;23.386;2024-03-23T04:09:42;94160.16;;;1.99;85.99
7918;BME280;4004;42.624;23.386;2024-03-23T04:12:09;94154.09;;;1.98;85.28
7918;BME280;4004;42.624;23.386;2024-03-23T04:14:35;94163.13;;;1.97;85.49
7918;BME280;4004;42.624;23.386;2024-03-23T04:17:02;94157.31;;;1.95;85.78
7918;BME280;4004;42.624;23.386;2024-03-23T04:19:28;94168.97;;;2.08;86.08
7918;BME280;4004;42.624;23.386;2024-03-23T04:21:55;94164.88;;;2.02;88.72
7918;BME280;4004;42.624;23.386;2024-03-23T04:24:22;94167.94;;;1.95;90.73
7918;BME280;4004;42.624;23.386;2024-03-23T04:26:51;94168.66;;;1.87;91.05
7918;BME280;4004;42.624;23.386;2024-03-23T04:29:17;94164.31;;;1.91;91.99
7918;BME280;4004;42.624;23.386;2024-03-23T04:31:44;94172.38;;;1.86;93.41
7918;BME280;4004;42.624;23.386;2024-03-23T04:34:10;94169.03;;;1.94;94.05
7918;BME280;4004;42.624;23.386;2024-03-23T04:36:37;94181.16;;;2.09;93.44
7918;BME280;4004;42.624;23.386;2024-03-23T04:39:03;94174.78;;;2.33;91.86
7918;BME280;4004;42.624;23.386;2024-03-23T04:41:31;94181.59;;;2.47;91.04
7918;BME280;4004;42.624;23.386;2024-03-23T04:43:58;94175.97;;;2.72;88.59
7918;BME280;4004;42.624;23.386;2024-03-23T04:46:26;94177.06;;;3.02;87.17
7918;BME280;4004;42.624;23.386;2024-03-23T04:48:53;94173.91;;;3.40;85.41
7918;BME280;4004;42.624;23.386;2024-03-23T04:51:22;94184.38;;;3.85;82.18
7918;BME280;4004;42.624;23.386;2024-03-23T04:53:48;94183.31;;;4.21;79.01
7918;BME280;4004;42.624;23.386;2024-03-23T04:56:15;94180.94;;;4.45;75.89
7918;BME280;4004;42.624;23.386;2024-03-23T04:58:43;94183.25;;;4.73;74.57
7918;BME280;4004;42.624;23.386;2024-03-23T05:01:10;94185.72;;;4.87;72.83
7918;BME280;4004;42.624;23.386;2024-03-23T05:03:37;94184.75;;;5.00;71.13
7918;BME280;4004;42.624;23.386;2024-03-23T05:06:04;94191.06;;;4.87;70.82
7918;BME280;4004;42.624;23.386;2024-03-23T05:08:31;94188.22;;;5.01;71.24
7918;BME280;4004;42.624;23.386;2024-03-23T05:10:57;94190.75;;;5.35;70.12
7918;BME280;4004;42.624;23.386;2024-03-23T05:13:24;94188.72;;;5.41;68.58
7918;BME280;4004;42.624;23.386;2024-03-23T05:15:53;94193.53;;;5.48;68.74
7918;BME280;4004;42.624;23.386;2024-03-23T05:18:20;94195.94;;;5.70;67.36
7918;BME280;4004;42.624;23.386;2024-03-23T05:20:46;94189.56;;;5.63;66.73
7918;BME280;4004;42.624;23.386;2024-03-23T05:23:12;94181.44;;;5.80;66.72
7918;BME280;4004;42.624;23.386;2024-03-23T05:25:38;94179.03;;;5.96;64.93
7918;BME280;4004;42.624;23.386;2024-03-23T05:28:05;94179.19;;;5.91;64.92
7918;BME280;4004;42.624;23.386;2024-03-23T05:30:32;94186.28;;;6.16;64.60
7918;BME280;4004;42.624;23.386;2024-03-23T05:33:00;94179.09;;;6.50;63.13
7918;BME280;4004;42.624;23.386;2024-03-23T05:35:26;94183.13;;;6.56;62.23
7918;BME280;4004;42.624;23.386;2024-03-23T05:37:53;94171.91;;;6.96;61.28
7918;BME280;4004;42.624;23.386;2024-03-23T05:40:19;94176.00;;;7.39;60.01
7918;BME280;4004;42.624;23.386;2024-03-23T05:42:45;94177.13;;;7.75;58.49
7918;BME280;4004;42.624;23.386;2024-03-23T05:45:11;94172.88;;;7.99;58.19
7918;BME280;4004;42.624;23.386;2024-03-23T05:47:38;94180.63;;;8.28;57.42
7918;BME280;4004;42.624;23.386;2024-03-23T05:50:06;94176.88;;;8.58;56.52
7918;BME280;4004;42.624;23.386;2024-03-23T05:52:35;94175.56;;;8.80;55.96
7918;BME280;4004;42.624;23.386;2024-03-23T05:55:01;94176.56;;;9.03;55.42
7918;BME280;4004;42.624;23.386;2024-03-23T05:57:28;94178.66;;;9.10;54.83
7918;BME280;4004;42.624;23.386;2024-03-23T05:59:54;94176.50;;;9.16;54.72
7918;BME280;4004;42.624;23.386;2024-03-23T06:02:21;94182.13;;;9.26;53.66
7918;BME280;4004;42.624;23.386;2024-03-23T06:04:46;94177.13;;;9.57;53.31
7918;BME280;4004;42.624;23.386;2024-03-23T06:07:15;94181.09;;;9.94;51.82
7918;BME280;4004;42.624;23.386;2024-03-23T06:09:41;94180.94;;;10.39;51.15
7918;BME280;4004;42.624;23.386;2024-03-23T06:12:08;94183.25;;;10.40;49.82
7918;BME280;4004;42.624;23.386;2024-03-23T06:14:34;94182.06;;;10.76;49.66
7918;BME280;4004;42.624;23.386;2024-03-23T06:17:01;94179.22;;;11.08;48.02
7918;BME280;4004;42.624;23.386;2024-03-23T06:19:27;94175.75;;;10.88;48.39
7918;BME280;4004;42.624;23.386;2024-03-23T06:21:54;94175.75;;;11.31;47.52
7918;BME280;4004;42.624;23.386;2024-03-23T06:24:22;94173.81;;;11.51;46.68
7918;BME280;4004;42.624;23.386;2024-03-23T06:26:49;94174.63;;;10.89;46.72
7918;BME280;4004;42.624;23.386;2024-03-23T06:29:16;94186.91;;;10.67;47.38
7918;BME280;4004;42.624;23.386;2024-03-23T06:31:42;94181.28;;;10.76;47.52
7918;BME280;4004;42.624;23.386;2024-03-23T06:34:08;94183.31;;;10.83;47.35
7918;BME280;4004;42.624;23.386;2024-03-23T06:36:35;94184.47;;;11.01;46.96
7918;BME280;4004;42.624;23.386;2024-03-23T06:39:04;94175.75;;;11.31;46.78
7918;BME280;4004;42.624;23.386;2024-03-23T06:41:32;94173.56;;;11.59;46.71
7918;BME280;4004;42.624;23.386;2024-03-23T06:43:58;94179.44;;;11.88;46.45
7918;BME280;4004;42.624;23.386;2024-03-23T06:46:25;94182.34;;;11.79;46.90
7918;BME280;4004;42.624;23.386;2024-03-23T06:48:50;94178.28;;;11.89;46.89
7918;BME280;4004;42.624;23.386;2024-03-23T06:51:17;94179.06;;;11.90;46.44
7918;BME280;4004;42.624;23.386;2024-03-23T06:53:43;94181.16;;;11.77;46.96
7918;BME280;4004;42.624;23.386;2024-03-23T06:56:10;94177.97;;;11.71;46.49
7918;BME280;4004;42.624;23.386;2024-03-23T06:58:38;94177.44;;;11.85;46.39
7918;BME280;4004;42.624;23.386;2024-03-23T07:01:05;94173.03;;;11.96;46.21
7918;BME280;4004;42.624;23.386;2024-03-23T07:03:30;94170.34;;;12.27;45.93
7918;BME280;4004;42.624;23.386;2024-03-23T07:05:58;94172.19;;;12.49;44.83
7918;BME280;4004;42.624;23.386;2024-03-23T07:08:24;94172.16;;;12.46;44.85
7918;BME280;4004;42.624;23.386;2024-03-23T07:10:51;94161.28;;;12.38;44.99
7918;BME280;4004;42.624;23.386;2024-03-23T07:13:16;94164.78;;;12.73;44.53
7918;BME280;4004;42.624;23.386;2024-03-23T07:15:51;94161.06;;;13.22;43.05
7918;BME280;4004;42.624;23.386;2024-03-23T07:18:17;94164.91;;;13.17;42.68
7918;BME280;4004;42.624;23.386;2024-03-23T07:20:52;94163.13;;;12.95;43.36
7918;BME280;4004;42.624;23.386;2024-03-23T07:23:18;94157.06;;;13.05;44.89
7918;BME280;4004;42.624;23.386;2024-03-23T07:25:45;94150.31;;;13.66;45.37
7918;BME280;4004;42.624;23.386;2024-03-23T07:28:10;94155.38;;;14.23;45.19
7918;BME280;4004;42.624;23.386;2024-03-23T07:30:37;94151.72;;;14.60;43.29
7918;BME280;4004;42.624;23.386;2024-03-23T07:35:34;94152.19;;;14.80;44.28
7918;BME280;4004;42.624;23.386;2024-03-23T07:38:01;94156.44;;;14.74;43.37
7918;BME280;4004;42.624;23.386;2024-03-23T07:40:30;94150.22;;;14.74;42.68
7918;BME280;4004;42.624;23.386;2024-03-23T07:42:57;94146.34;;;14.71;43.74
7918;BME280;4004;42.624;23.386;2024-03-23T07:45:23;94148.31;;;14.74;47.52
7918;BME280;4004;42.624;23.386;2024-03-23T07:47:50;94147.88;;;14.68;47.65
7918;BME280;4004;42.624;23.386;2024-03-23T07:50:15;94136.75;;;14.11;47.99
7918;BME280;4004;42.624;23.386;2024-03-23T07:52:43;94137.88;;;14.03;48.37
7918;BME280;4004;42.624;23.386;2024-03-23T07:55:09;94141.44;;;13.66;48.21
7918;BME280;4004;42.624;23.386;2024-03-23T07:57:36;94139.09;;;13.61;46.99
7918;BME280;4004;42.624;23.386;2024-03-23T08:00:02;94134.97;;;13.74;46.28
7918;BME280;4004;42.624;23.386;2024-03-23T08:02:29;94136.25;;;13.98;45.23
7918;BME280;4004;42.624;23.386;2024-03-23T08:04:55;94135.25;;;14.17;45.88
7918;BME280;4004;42.624;23.386;2024-03-23T08:07:22;94137.88;;;14.03;45.59
7918;BME280;4004;42.624;23.386;2024-03-23T08:09:49;94138.25;;;14.05;42.92
7918;BME280;4004;42.624;23.386;2024-03-23T08:12:16;94138.56;;;13.93;44.85
7918;BME280;4004;42.624;23.386;2024-03-23T08:14:42;94135.94;;;14.03;43.42
7918;BME280;4004;42.624;23.386;2024-03-23T08:17:09;94148.03;;;14.24;41.95
7918;BME280;4004;42.624;23.386;2024-03-23T08:19:36;94138.88;;;14.46;41.65
7918;BME280;4004;42.624;23.386;2024-03-23T08:22:02;94133.94;;;14.59;41.20
7918;BME280;4004;42.624;23.386;2024-03-23T08:24:28;94138.59;;;14.59;40.99
7918;BME280;4004;42.624;23.386;2024-03-23T08:26:57;94136.53;;;14.41;41.58
7918;BME280;4004;42.624;23.386;2024-03-23T08:29:24;94134.44;;;14.09;40.99
7918;BME280;4004;42.624;23.386;2024-03-23T08:31:49;94127.78;;;14.00;41.88
7918;BME280;4004;42.624;23.386;2024-03-23T08:34:16;94132.78;;;13.94;41.58
7918;BME280;4004;42.624;23.386;2024-03-23T08:36:42;94126.78;;;13.67;42.28
7918;BME280;4004;42.624;23.386;2024-03-23T08:39:09;94123.97;;;13.53;42.63
7918;BME280;4004;42.624;23.386;2024-03-23T08:41:35;94113.94;;;13.53;42.54
7918;BME280;4004;42.624;23.386;2024-03-23T08:44:03;94119.94;;;13.80;41.84
7918;BME280;4004;42.624;23.386;2024-03-23T08:46:29;94118.88;;;13.96;41.05
7918;BME280;4004;42.624;23.386;2024-03-23T08:48:56;94109.97;;;13.88;41.88
7918;BME280;4004;42.624;23.386;2024-03-23T08:51:22;94104.16;;;13.86;41.77
7918;BME280;4004;42.624;23.386;2024-03-23T08:53:49;94103.53;;;13.55;41.32
7918;BME280;4004;42.624;23.386;2024-03-23T08:56:15;94102.88;;;13.24;42.74
7918;BME280;4004;42.624;23.386;2024-03-23T08:58:42;94098.13;;;13.11;42.93
7918;BME280;4004;42.624;23.386;2024-03-23T09:01:11;94092.63;;;13.00;42.69
7918;BME280;4004;42.624;23.386;2024-03-23T09:03:40;94094.09;;;12.94;43.24
7918;BME280;4004;42.624;23.386;2024-03-23T09:06:07;94093.31;;;12.93;43.56
7918;BME280;4004;42.624;23.386;2024-03-23T09:08:34;94085.63;;;12.95;43.04
7918;BME280;4004;42.624;23.386;2024-03-23T09:11:03;94090.22;;;12.91;43.67
7918;BME280;4004;42.624;23.386;2024-03-23T09:13:32;94081.66;;;12.82;43.64
7918;BME280;4004;42.624;23.386;2024-03-23T09:15:58;94081.69;;;12.85;43.74
7918;BME280;4004;42.624;23.386;2024-03-23T09:18:27;94073.38;;;13.01;43.66
7918;BME280;4004;42.624;23.386;2024-03-23T09:20:52;94068.03;;;13.09;43.18
7918;BME280;4004;42.624;23.386;2024-03-23T09:23:20;94058.78;;;13.10;43.46
7918;BME280;4004;42.624;23.386;2024-03-23T09:25:46;94064.19;;;13.10;43.06
7918;BME280;4004;42.624;23.386;2024-03-23T09:28:13;94054.94;;;13.11;42.83
7918;BME280;4004;42.624;23.386;2024-03-23T09:30:39;94053.69;;;13.01;43.25
7918;BME280;4004;42.624;23.386;2024-03-23T09:33:07;94046.69;;;12.93;43.69
7918;BME280;4004;42.624;23.386;2024-03-23T09:35:37;94048.63;;;12.96;44.20
7918;BME280;4004;42.624;23.386;2024-03-23T09:38:04;94042.97;;;13.08;43.95
7918;BME280;4004;42.624;23.386;2024-03-23T09:40:31;94036.44;;;13.13;42.82
7918;BME280;4004;42.624;23.386;2024-03-23T09:42:58;94034.81;;;13.01;43.53
7918;BME280;4004;42.624;23.386;2024-03-23T09:45:27;94040.63;;;13.03;42.49
7918;BME280;4004;42.624;23.386;2024-03-23T09:47:55;94026.38;;;13.06;42.50
7918;BME280;4004;42.624;23.386;2024-03-23T09:50:21;94024.41;;;13.03;42.30
7918;BME280;4004;42.624;23.386;2024-03-23T09:52:49;94017.41;;;12.95;42.37
7918;BME280;4004;42.624;23.386;2024-03-23T09:55:16;94014.25;;;12.89;42.66
7918;BME280;4004;42.624;23.386;2024-03-23T09:57:42;94014.25;;;12.85;42.14
7918;BME280;4004;42.624;23.386;2024-03-23T10:00:09;94015.38;;;12.84;41.84
7918;BME280;4004;42.624;23.386;2024-03-23T10:02:37;94003.44;;;12.85;42.59
7918;BME280;4004;42.624;23.386;2024-03-23T10:05:04;94004.72;;;12.99;42.73
7918;BME280;4004;42.624;23.386;2024-03-23T10:07:31;94005.44;;;12.96;43.36
7918;BME280;4004;42.624;23.386;2024-03-23T10:09:58;93996.22;;;13.00;43.94
7918;BME280;4004;42.624;23.386;2024-03-23T10:12:35;93999.03;;;13.11;43.18
7918;BME280;4004;42.624;23.386;2024-03-23T10:15:15;93994.75;;;13.06;42.90
7918;BME280;4004;42.624;23.386;2024-03-23T10:17:44;93989.78;;;13.12;42.28
7918;BME280;4004;42.624;23.386;2024-03-23T10:20:10;93992.56;;;13.23;46.45
7918;BME280;4004;42.624;23.386;2024-03-23T10:22:38;93986.88;;;13.35;48.35
7918;BME280;4004;42.624;23.386;2024-03-23T10:25:09;93982.75;;;13.52;46.68
7918;BME280;4004;42.624;23.386;2024-03-23T10:27:36;93977.44;;;13.63;47.25
7918;BME280;4004;42.624;23.386;2024-03-23T10:30:09;93963.97;;;13.77;44.00
7918;BME280;4004;42.624;23.386;2024-03-23T10:32:37;93965.50;;;13.75;42.72
7918;BME280;4004;42.624;23.386;2024-03-23T10:35:17;93971.31;;;13.80;45.42
7918;BME280;4004;42.624;23.386;2024-03-23T10:37:46;93962.13;;;13.92;45.67
7918;BME280;4004;42.624;23.386;2024-03-23T10:40:14;93962.84;;;13.82;42.30
7918;BME280;4004;42.624;23.386;2024-03-23T10:42:41;93950.81;;;13.68;41.50
7918;BME280;4004;42.624;23.386;2024-03-23T10:45:08;93944.28;;;13.73;41.00
7918;BME280;4004;42.624;23.386;2024-03-23T10:47:36;93943.88;;;13.71;41.75
7918;BME280;4004;42.624;23.386;2024-03-23T10:50:03;93929.19;;;13.68;41.25
7918;BME280;4004;42.624;23.386;2024-03-23T10:52:30;93945.03;;;13.74;42.92
7918;BME280;4004;42.624;23.386;2024-03-23T10:54:57;93931.13;;;13.68;41.20
7918;BME280;4004;42.624;23.386;2024-03-23T10:57:30;93922.25;;;13.64;40.76
7918;BME280;4004;42.624;23.386;2024-03-23T10:59:58;93921.84;;;13.62;40.88
7918;BME280;4004;42.624;23.386;2024-03-23T11:02:26;93907.59;;;13.68;41.11
7918;BME280;4004;42.624;23.386;2024-03-23T11:04:52;93905.31;;;13.85;41.11
7918;BME280;4004;42.624;23.386;2024-03-23T11:07:31;93901.88;;;13.88;40.21
7918;BME280;4004;42.624;23.386;2024-03-23T11:09:58;93887.56;;;13.77;40.08
7918;BME280;4004;42.624;23.386;2024-03-23T11:12:28;93884.84;;;13.80;40.33
7918;BME280;4004;42.624;23.386;2024-03-23T11:14:59;93876.00;;;13.83;39.30
7918;BME280;4004;42.624;23.386;2024-03-23T11:17:27;93870.66;;;14.01;40.62
7918;BME280;4004;42.624;23.386;2024-03-23T11:19:54;93874.47;;;13.93;39.23
7918;BME280;4004;42.624;23.386;2024-03-23T11:22:42;93869.06;;;13.93;39.15
7918;BME280;4004;42.624;23.386;2024-03-23T11:25:15;93858.69;;;14.06;38.22
7918;BME280;4004;42.624;23.386;2024-03-23T11:27:45;93859.47;;;14.10;38.13
7918;BME280;4004;42.624;23.386;2024-03-23T11:30:16;93854.06;;;14.14;38.62
7918;BME280;4004;42.624;23.386;2024-03-23T11:32:44;93845.97;;;14.17;37.91
7918;BME280;4004;42.624;23.386;2024-03-23T11:35:10;93847.16;;;14.34;37.45
7918;BME280;4004;42.624;23.386;2024-03-23T11:37:37;93844.44;;;14.41;37.26
7918;BME280;4004;42.624;23.386;2024-03-23T11:40:19;93848.28;;;14.40;37.34
7918;BME280;4004;42.624;23.386;2024-03-23T11:42:55;93834.38;;;14.49;37.33
7918;BME280;4004;42.624;23.386;2024-03-23T11:45:21;93825.53;;;14.56;37.05
7918;BME280;4004;42.624;23.386;2024-03-23T11:47:48;93819.34;;;14.59;37.14
7918;BME280;4004;42.624;23.386;2024-03-23T11:50:19;93822.44;;;14.68;36.68
7918;BME280;4004;42.624;23.386;2024-03-23T11:52:46;93820.88;;;14.74;37.00
7918;BME280;4004;42.624;23.386;2024-03-23T11:55:12;93807.72;;;14.83;36.77
7918;BME280;4004;42.624;23.386;2024-03-23T11:57:39;93797.28;;;14.82;36.80
7918;BME280;4004;42.624;23.386;2024-03-23T12:03:05;93791.47;;;14.76;36.43
7918;BME280;4004;42.624;23.386;2024-03-23T12:05:33;93784.16;;;14.73;37.03
7918;BME280;4004;42.624;23.386;2024-03-23T12:08:19;93784.94;;;14.81;37.11
7918;BME280;4004;42.624;23.386;2024-03-23T12:10:48;93776.75;;;14.91;36.92
7918;BME280;4004;42.624;23.386;2024-03-23T12:13:19;93760.50;;;14.99;37.11
7918;BME280;4004;42.624;23.386;2024-03-23T12:15:46;93762.03;;;15.03;36.66
7918;BME280;4004;42.624;23.386;2024-03-23T12:18:14;93763.97;;;15.10;36.74
7918;BME280;4004;42.624;23.386;2024-03-23T12:20:41;93759.28;;;15.21;36.17
7918;BME280;4004;42.624;23.386;2024-03-23T12:23:08;93754.97;;;15.31;36.07
7918;BME280;4004;42.624;23.386;2024-03-23T12:25:37;93760.75;;;15.29;36.26
7918;BME280;4004;42.624;23.386;2024-03-23T12:28:04;93752.25;;;15.34;35.88
7918;BME280;4004;42.624;23.386;2024-03-23T12:30:33;93743.75;;;15.32;35.87
7918;BME280;4004;42.624;23.386;2024-03-23T12:32:59;93739.47;;;15.39;36.94
7918;BME280;4004;42.624;23.386;2024-03-23T12:35:27;93743.28;;;15.52;35.70
7918;BME280;4004;42.624;23.386;2024-03-23T12:37:53;93735.53;;;15.50;35.81
7918;BME280;4004;42.624;23.386;2024-03-23T12:40:20;93745.56;;;15.57;36.00
7918;BME280;4004;42.624;23.386;2024-03-23T12:42:45;93739.38;;;15.53;35.84
7918;BME280;4004;42.624;23.386;2024-03-23T12:45:13;93735.59;;;15.40;35.71
7918;BME280;4004;42.624;23.386;2024-03-23T12:47:38;93729.41;;;15.39;35.88
7918;BME280;4004;42.624;23.386;2024-03-23T12:50:06;93727.06;;;15.41;35.40
7918;BME280;4004;42.624;23.386;2024-03-23T12:52:33;93722.84;;;15.29;35.67
7918;BME280;4004;42.624;23.386;2024-03-23T12:55:00;93717.47;;;15.26;35.75
7918;BME280;4004;42.624;23.386;2024-03-23T12:57:26;93711.66;;;15.27;35.40
7918;BME280;4004;42.624;23.386;2024-03-23T12:59:53;93709.69;;;15.31;35.64
7918;BME280;4004;42.624;23.386;2024-03-23T13:02:19;93706.22;;;15.31;35.27
7918;BME280;4004;42.624;23.386;2024-03-23T13:04:49;93699.22;;;15.41;34.64
7918;BME280;4004;42.624;23.386;2024-03-23T13:07:15;93696.47;;;15.44;35.28
7918;BME280;4004;42.624;23.386;2024-03-23T13:09:44;93699.53;;;15.50;35.04
7918;BME280;4004;42.624;23.386;2024-03-23T13:12:10;93679.81;;;15.46;34.99
7918;BME280;4004;42.624;23.386;2024-03-23T13:14:38;93684.44;;;15.52;34.50
7918;BME280;4004;42.624;23.386;2024-03-23T13:17:05;93676.69;;;15.54;34.22
7918;BME280;4004;42.624;23.386;2024-03-23T13:19:33;93675.19;;;15.46;34.48
7918;BME280;4004;42.624;23.386;2024-03-23T13:21:59;93674.66;;;15.66;33.43
7918;BME280;4004;42.624;23.386;2024-03-23T13:24:27;93675.81;;;15.65;32.69
7918;BME280;4004;42.624;23.386;2024-03-23T13:26:55;93667.31;;;15.66;32.70
7918;BME280;4004;42.624;23.386;2024-03-23T13:29:23;93668.09;;;15.63;32.87
7918;BME280;4004;42.624;23.386;2024-03-23T13:31:51;93664.59;;;15.66;32.53
7918;BME280;4004;42.624;23.386;2024-03-23T13:34:18;93661.94;;;15.59;32.76
7918;BME280;4004;42.624;23.386;2024-03-23T13:36:44;93659.56;;;15.65;32.62
7918;BME280;4004;42.624;23.386;2024-03-23T13:39:12;93654.13;;;15.65;32.72
7918;BME280;4004;42.624;23.386;2024-03-23T13:41:38;93662.66;;;15.74;32.16
7918;BME280;4004;42.624;23.386;2024-03-23T13:44:07;93648.28;;;15.73;32.00
7918;BME280;4004;42.624;23.386;2024-03-23T13:46:34;93649.84;;;15.74;32.34
7918;BME280;4004;42.624;23.386;2024-03-23T13:49:00;93648.28;;;15.77;31.15
7918;BME280;4004;42.624;23.386;2024-03-23T13:51:26;93638.56;;;15.83;29.36
7918;BME280;4004;42.624;23.386;2024-03-23T13:53:54;93637.78;;;15.83;28.91
7918;BME280;4004;42.624;23.386;2024-03-23T13:56:20;93640.09;;;15.84;29.07
7918;BME280;4004;42.624;23.386;2024-03-23T13:58:47;93638.88;;;15.89;29.23
7918;BME280;4004;42.624;23.386;2024-03-23T14:01:15;93639.22;;;15.94;29.11
7918;BME280;4004;42.624;23.386;2024-03-23T14:03:42;93627.97;;;15.96;28.90
7918;BME280;4004;42.624;23.386;2024-03-23T14:06:09;93631.47;;;15.97;28.69
7918;BME280;4004;42.624;23.386;2024-03-23T14:08:37;93628.72;;;16.00;28.10
7918;BME280;4004;42.624;23.386;2024-03-23T14:11:05;93619.13;;;15.92;28.43
7918;BME280;4004;42.624;23.386;2024-03-23T14:13:32;93619.44;;;15.98;28.28